Decoded METAR Reports


Created by using MetarWeather

Station Name Location Elevation Time Temperature Dew Point RH Heat Index Wind Visibility Pressure Sky Condition Weather Remarks METAR
Alexandroupolis  40.85N 25.92E  3m  18/04/2015 13:20:00  18.0C  13.0C  73%  N/A  28 km/h, S (190 degrees)  > 10000m  1012.9 mb  Few clouds at 550m
 
      LGAL 181020Z 19015KT 9999 FEW018 18/13 Q1013 
Andravida (Civ/A  37.92N 21.27E  12m  18/04/2015 13:20:00  23.0C  6.0C  33%  24.9C  28 km/h, S (180 degrees)  > 10000m  1017.9 mb           LGAD 181020Z 18015KT CAVOK 23/06 Q1018 
Araxos (Civ/Afb)  38.17N 21.42E  15m  18/04/2015 13:20:00  24.0C  7.0C  34%  25.1C  22 km/h, SSW (200 degrees)  > 10000m  1015.9 mb           LGRX 181020Z 20012KT CAVOK 24/07 Q1016 
Athens/Elef-Ven  37.93N 23.95E  94m  18/04/2015 13:20:00  22.0C  4.0C  31%  24.6C  26 km/h, S (180 degrees)  > 10000m  1015.9 mb  Few clouds at 760m
 
      LGAV 181020Z 18014KT 9999 FEW025 22/04 Q1016 NOSIG 
Chios Airport  38.32N 26.12E  4m  18/04/2015 12:50:00  20.0C  13.0C  64%  N/A  17 km/h, S (190 degrees)  > 10000m  1016.9 mb           LGHI 180950Z 19009KT CAVOK 20/13 Q1017 
Elefsis (Hel-Afb  38.07N 23.55E  31m  18/04/2015 13:20:00  22.0C  4.0C  31%  24.6C  11 km/h, S (180 degrees)  > 10000m  1015.9 mb           LGEL 181020Z 18006KT CAVOK 22/04 Q1016 
Ioannis Kapodist  39.60N 19.92E  2m  18/04/2015 13:20:00  20.0C  12.0C  60%  N/A  17 km/h, SE (140 degrees)  > 10000m  1015.9 mb  Few clouds at 760m
Scattered clouds at 1100m
 
      LGKR 181020Z 14009KT 9999 FEW025 SCT035 20/12 Q1016 NOSIG 
Iraklion (Civ/Af  35.32N 25.17E  39m  18/04/2015 13:20:00  25.0C  8.0C  34%  25.5C  22 km/h, SSE (150 degrees)  > 10000m  1019.0 mb           LGIR 181020Z 15012KT CAVOK 25/08 Q1019 NOSIG 
Kalamata (Hel-Af  37.07N 22.02E  8m  18/04/2015 13:20:00  21.0C  6.0C  38%  N/A  13 km/h, S (170 degrees)  > 10000m  1019.0 mb           LGKL 181020Z 17007KT CAVOK 21/06 Q1019 
Karpathos  35.42N 27.15E  20m  18/04/2015 13:20:00  19.0C  12.0C  64%  N/A  22 km/h, SW (220 degrees)  > 10000m  1021.0 mb  Scattered clouds at 550m
 
      LGKP 181020Z 22012KT 9999 SCT018 19/12 Q1021 
Kavala/Chrisoupo  40.92N 24.62E  5m  18/04/2015 13:20:00  19.0C  13.0C  68%  N/A  11 km/h, SSW (210 degrees)  > 10000m  1011.9 mb  Few clouds at 300m
 
      LGKV 181020Z 21006KT 9999 FEW010 19/13 Q1012 
Kefallinia  38.12N 20.50E  18m  18/04/2015 12:50:00  20.0C  16.0C  78%  N/A  13 km/h, SE (130 degrees)  > 10000m  1016.9 mb           LGKF 180950Z 13007KT CAVOK 20/16 Q1017 
Kos Airport  36.80N 27.08E  130m  18/04/2015 13:20:00  20.0C  13.0C  64%  N/A  22 km/h, SSE (160 degrees)  > 10000m  1020.0 mb  Few clouds at 550m
Scattered clouds at 5500m
 
      LGKO 181020Z 16012KT 110V190 9999 FEW018 SCT180 20/13 Q1020 
Kozani (Civ/Army  40.28N 21.85E  630m  18/04/2015 12:50:00  21.0C  0.0C  25%  N/A  Calm  > 10000m  1013.9 mb           LGKZ 180950Z 00000KT CAVOK 21/M00 Q1014 
Limnos Island Ar  39.92N 25.23E  5m  18/04/2015 13:20:00  19.0C  14.0C  73%  N/A  30 km/h, 48 km/h gusts, S (180 degrees)  > 10000m  1012.9 mb  Few clouds at 550m
Broken clouds at 5500m
 
      LGLM 181020Z 18016G26KT 9999 FEW018 BKN180 19/14 Q1013 
Mikonos Island  37.43N 25.35E  120m  18/04/2015 12:50:00  18.0C  11.0C  64%  N/A  15 km/h, S (190 degrees)  > 10000m  1017.9 mb           LGMK 180950Z 19008KT CAVOK 18/11 Q1018 
Mitilini  39.05N 26.60E  17m  18/04/2015 13:20:00  20.0C  10.0C  53%  N/A  26 km/h, 44 km/h gusts, SSE (160 degrees)  > 10000m  1016.9 mb  Few clouds at 760m
Scattered clouds at 2400m
Broken clouds at 5500m
 
      LGMT 181020Z 16014G24KT 130V220 9999 FEW025 SCT080 BKN180 20/10 Q1017 
Paros  37.00N 25.07E  36m  18/04/2015 12:50:00  20.0C  12.0C  60%  N/A  11 km/h, SSW (200 degrees)  > 10000m  1019.0 mb           LGPA 180950Z 20006KT CAVOK 20/12 Q1019 
Preveza/Aktion  38.62N 20.77E  4m  18/04/2015 13:20:00  21.0C  10.0C  49%  N/A  11 km/h, NNE (30 degrees)  > 10000m  1016.9 mb           LGPZ 181020Z 03006KT CAVOK 21/10 Q1017 
Rhodes/Diagoras  36.40N 28.08E  5m  18/04/2015 13:20:00  21.0C  14.0C  64%  N/A  11 km/h, E (90 degrees)  > 10000m  1020.0 mb  Few clouds at 550m
 
      LGRP 181020Z 09006KT 080V140 9999 FEW018 21/14 Q1020 NOSIG 
Samos Airport  37.68N 26.92E  6m  18/04/2015 13:20:00  19.0C  12.0C  64%  N/A  20 km/h, SSE (160 degrees)  > 10000m  1020.0 mb  Few clouds at 550m
Scattered clouds at 3000m
 
      LGSM 181020Z 16011KT 9999 FEW018 SCT100 19/12 Q1020 
Santorini Island  36.40N 25.48E  40m  18/04/2015 13:20:00  23.0C  4.0C  29%  24.7C  15 km/h, 33 km/h gusts, SSW (200 degrees)  > 10000m  1019.0 mb  Scattered clouds at 760m
 
      LGSR 181020Z 20008G18KT 9999 SCT025 23/04 Q1019 
Skiathos Island  39.18N 23.50E  15m  18/04/2015 09:50:00  20.0C  8.0C  46%  N/A  Calm  > 10000m  1014.9 mb           LGSK 180650Z 00000KT CAVOK 20/08 Q1015 
Souda/Khania (Af  35.47N 24.12E  150m  18/04/2015 13:20:00  26.0C  9.0C  34%  26.0C  11 km/h, ENE (60 degrees)  > 10000m  1019.0 mb           LGSA 181020Z 06006KT CAVOK 26/09 Q1019 
Syros  37.42N 24.95E  72m  18/04/2015 13:20:00  21.0C  10.0C  49%  N/A  26 km/h, SSW (210 degrees)    1016.9 mb     Light Rain
 
   LGSO 181020Z AUTO 21014KT 170V260 //// -RA ////// 21/10 Q1017 RE// 
Thessaloniki/Mik  40.52N 22.97E  7m  18/04/2015 13:20:00  25.0C  1.0C  21%  25.0C  15 km/h, SSE (150 degrees)  > 10000m  1010.8 mb           LGTS 181020Z 15008KT CAVOK 25/01 Q1011 NOSIG 
Zakinthos Airpor  37.75N 20.87E  3m  18/04/2015 12:50:00  20.0C  16.0C  78%  N/A  20 km/h, SSE (160 degrees)  > 10000m  1016.9 mb           LGZA 180950Z 16011KT CAVOK 20/16 Q1017